createdAt,value
2019-04-10T00:00:24.166Z,38.20
2019-04-10T00:01:24.194Z,40.70
2019-04-10T00:02:24.225Z,39.90
2019-04-10T00:03:32.331Z,38.00
2019-04-10T00:04:25.197Z,37.40
2019-04-10T00:05:24.313Z,32.20
2019-04-10T00:06:24.343Z,32.60
2019-04-10T00:07:24.372Z,37.30
2019-04-10T00:08:24.402Z,38.40
2019-04-10T00:09:25.269Z,37.60
2019-04-10T00:10:24.666Z,35.70
2019-04-10T00:11:24.916Z,35.90
2019-04-10T00:12:25.432Z,35.30
2019-04-10T00:13:24.732Z,36.20
2019-04-10T00:14:24.579Z,36.50
2019-04-10T00:15:24.609Z,36.60
2019-04-10T00:16:24.650Z,34.90
2019-04-10T00:17:25.010Z,35.80
2019-04-10T00:18:24.697Z,35.00
2019-04-10T00:19:24.725Z,36.00
2019-04-10T00:20:24.755Z,35.40
2019-04-10T00:21:25.189Z,38.50
2019-04-10T00:22:24.814Z,37.20
2019-04-10T00:23:24.858Z,32.80
2019-04-10T00:24:24.873Z,35.60
2019-04-10T00:25:24.902Z,38.80
2019-04-10T00:26:25.737Z,42.70
2019-04-10T00:27:24.963Z,39.40
2019-04-10T00:28:25.521Z,40.80
2019-04-10T00:29:25.021Z,38.00
2019-04-10T00:30:25.125Z,37.10
2019-04-10T00:31:26.404Z,39.00
2019-04-10T00:32:25.108Z,38.90
2019-04-10T00:33:25.137Z,37.40
2019-04-10T00:34:25.424Z,39.50
2019-04-10T00:35:25.581Z,39.10
2019-04-10T00:36:25.227Z,39.50
2019-04-10T00:37:28.442Z,40.50
2019-04-10T00:38:26.096Z,41.20
2019-04-10T00:39:25.348Z,41.30
2019-04-10T00:40:25.637Z,38.70
2019-04-10T00:41:25.373Z,35.80
2019-04-10T00:42:26.083Z,37.50
2019-04-10T00:43:26.614Z,37.10
2019-04-10T00:44:25.834Z,35.00
2019-04-10T00:45:25.493Z,33.50
2019-04-10T00:46:26.301Z,35.40
2019-04-10T00:47:26.660Z,35.40
2019-04-10T00:48:25.968Z,38.30
2019-04-10T00:49:25.996Z,36.50
2019-04-10T00:50:26.561Z,38.20
2019-04-10T00:51:25.667Z,38.20
2019-04-10T00:52:25.698Z,35.60
2019-04-10T00:53:25.725Z,37.50
2019-04-10T00:54:25.816Z,35.90
2019-04-10T00:55:25.893Z,38.20
2019-04-10T00:56:26.308Z,37.10
2019-04-10T00:57:25.844Z,37.60
2019-04-10T00:58:25.967Z,35.80
2019-04-10T00:59:26.211Z,36.60
2019-04-10T01:00:25.931Z,36.60
2019-04-10T01:01:25.961Z,37.20
2019-04-10T01:02:26.884Z,39.60
2019-04-10T01:03:26.026Z,36.70
2019-04-10T01:04:26.611Z,38.80
2019-04-10T01:05:27.009Z,38.60
2019-04-10T01:06:26.214Z,38.80
2019-04-10T01:07:35.701Z,37.60
2019-04-10T01:08:26.671Z,37.30
2019-04-10T01:09:26.196Z,39.30
2019-04-10T01:10:26.304Z,38.60
2019-04-10T01:11:27.179Z,39.10
2019-04-10T01:12:26.287Z,41.50
2019-04-10T01:13:27.139Z,38.10
2019-04-10T01:14:26.534Z,39.40
2019-04-10T01:15:26.689Z,41.60
2019-04-10T01:16:27.190Z,39.80
2019-04-10T01:17:26.433Z,41.30
2019-04-10T01:18:26.814Z,41.50
2019-04-10T01:19:26.491Z,41.30
2019-04-10T01:20:26.522Z,41.60
2019-04-10T01:21:26.550Z,39.80
2019-04-10T01:22:27.485Z,39.90
2019-04-10T01:23:26.793Z,41.70
2019-04-10T01:24:26.947Z,39.60
2019-04-10T01:25:26.668Z,39.10
2019-04-10T01:26:28.052Z,37.80
2019-04-10T01:27:27.704Z,38.50
2019-04-10T01:28:26.935Z,40.40
2019-04-10T01:29:27.277Z,37.60
2019-04-10T01:30:26.813Z,38.10
2019-04-10T01:31:26.911Z,42.30
2019-04-10T01:32:27.912Z,40.60
2019-04-10T01:33:26.902Z,38.90
2019-04-10T01:34:27.525Z,41.50
2019-04-10T01:35:26.960Z,38.60
2019-04-10T01:36:27.045Z,37.40
2019-04-10T01:37:27.022Z,37.60
2019-04-10T01:38:27.251Z,36.90
2019-04-10T01:39:28.438Z,39.20
2019-04-10T01:40:27.107Z,39.40
2019-04-10T01:41:27.843Z,39.60
2019-04-10T01:42:28.303Z,42.60
2019-04-10T01:43:27.196Z,38.20
2019-04-10T01:44:27.226Z,39.30
2019-04-10T01:45:27.339Z,40.00
2019-04-10T01:46:28.415Z,40.30
2019-04-10T01:47:27.314Z,39.70
2019-04-10T01:48:27.969Z,40.20
2019-04-10T01:49:27.374Z,40.30
2019-04-10T01:50:28.410Z,40.60
2019-04-10T01:51:27.557Z,37.50
2019-04-10T01:52:27.460Z,37.40
2019-04-10T01:53:28.029Z,38.10
2019-04-10T01:54:27.554Z,37.90
2019-04-10T01:55:29.866Z,37.80
2019-04-10T01:56:31.878Z,37.10
2019-04-10T01:57:28.424Z,35.60
2019-04-10T01:58:27.638Z,38.00
2019-04-10T01:59:27.833Z,36.10
2019-04-10T02:00:27.845Z,37.90
2019-04-10T02:01:28.335Z,39.00
2019-04-10T02:02:27.756Z,40.50
2019-04-10T02:03:27.787Z,40.00
2019-04-10T02:04:28.880Z,39.10
2019-04-10T02:05:28.259Z,39.10
2019-04-10T02:06:27.874Z,42.10
2019-04-10T02:07:27.903Z,40.50
2019-04-10T02:08:27.933Z,40.70
2019-04-10T02:09:27.964Z,41.10
2019-04-10T02:10:28.046Z,38.30
2019-04-10T02:11:28.137Z,39.40
2019-04-10T02:12:28.399Z,37.90
2019-04-10T02:13:28.082Z,35.90
2019-04-10T02:14:28.111Z,36.90
2019-04-10T02:15:28.144Z,40.30
2019-04-10T02:16:28.171Z,36.70
2019-04-10T02:17:28.592Z,36.60
2019-04-10T02:18:28.229Z,37.30
2019-04-10T02:19:28.261Z,37.90
2019-04-10T02:20:29.161Z,37.30
2019-04-10T02:21:28.319Z,40.40
2019-04-10T02:22:28.739Z,38.90
2019-04-10T02:23:28.379Z,39.80
2019-04-10T02:24:29.339Z,37.90
2019-04-10T02:25:28.500Z,40.00
2019-04-10T02:26:29.429Z,43.40
2019-04-10T02:27:28.495Z,44.30
2019-04-10T02:28:29.122Z,47.00
2019-04-10T02:29:28.553Z,46.80
2019-04-10T02:30:30.217Z,51.90
2019-04-10T02:31:30.615Z,56.00
2019-04-10T02:32:28.874Z,58.40
2019-04-10T02:33:29.390Z,58.00
2019-04-10T02:34:28.739Z,59.80
2019-04-10T02:35:29.745Z,60.20
2019-04-10T02:36:29.812Z,59.00
2019-04-10T02:37:28.791Z,65.70
2019-04-10T02:38:47.472Z,65.60
2019-04-10T02:39:37.401Z,67.00
2019-04-10T02:40:28.979Z,67.00
2019-04-10T02:41:29.891Z,65.60
2019-04-10T02:42:30.210Z,66.20
2019-04-10T02:43:29.330Z,64.40
2019-04-10T02:44:30.625Z,63.70
2019-04-10T02:45:30.156Z,63.80
2019-04-10T02:46:29.356Z,61.10
2019-04-10T02:47:30.587Z,58.80
2019-04-10T02:48:29.672Z,58.10
2019-04-10T02:49:29.976Z,58.20
2019-04-10T02:50:29.442Z,57.00
2019-04-10T02:51:30.552Z,55.50
2019-04-10T02:52:30.753Z,53.40
2019-04-10T02:53:29.668Z,53.10
2019-04-10T02:54:29.291Z,52.90
2019-04-10T02:55:29.318Z,53.80
2019-04-10T02:56:30.753Z,53.20
2019-04-10T02:57:29.570Z,55.80
2019-04-10T02:58:29.942Z,54.80
2019-04-10T02:59:29.435Z,53.90
2019-04-10T03:00:30.378Z,56.10
2019-04-10T03:01:29.496Z,56.00
2019-04-10T03:02:31.135Z,54.20
2019-04-10T03:03:30.018Z,55.70
2019-04-10T03:04:33.046Z,54.70
2019-04-10T03:05:30.276Z,55.20
2019-04-10T03:06:31.006Z,53.70
2019-04-10T03:07:29.674Z,51.60
2019-04-10T03:08:50.074Z,53.60
2019-04-10T03:09:46.010Z,52.00
2019-04-10T03:10:40.539Z,52.10
2019-04-10T03:11:31.226Z,50.70
2019-04-10T03:12:30.168Z,51.70
2019-04-10T03:13:31.068Z,49.80
2019-04-10T03:14:30.099Z,52.20
2019-04-10T03:15:31.325Z,51.20
2019-04-10T03:16:29.932Z,52.80
2019-04-10T03:17:30.265Z,52.60
2019-04-10T03:18:30.536Z,53.20
2019-04-10T03:19:30.020Z,49.70
2019-04-10T03:20:30.155Z,51.10
2019-04-10T03:27:22.682Z,56.20
2019-04-10T03:28:22.948Z,58.40
2019-04-10T03:29:22.661Z,58.70
2019-04-10T03:30:23.426Z,57.80
2019-04-10T03:31:24.632Z,58.30
2019-04-10T03:32:23.239Z,58.80
2019-04-10T03:33:27.627Z,55.90
2019-04-10T03:34:25.257Z,57.90
2019-04-10T03:35:22.891Z,59.80
2019-04-10T03:36:23.220Z,59.60
2019-04-10T03:37:22.898Z,59.50
2019-04-10T03:38:23.723Z,59.40
2019-04-10T03:39:23.724Z,60.80
2019-04-10T03:40:23.720Z,58.20
2019-04-10T03:41:24.056Z,57.40
2019-04-10T03:42:23.281Z,57.90
2019-04-10T03:43:23.071Z,59.20
2019-04-10T03:44:23.100Z,60.10
2019-04-10T03:45:24.118Z,60.90
2019-04-10T03:46:23.524Z,61.30
2019-04-10T03:47:23.187Z,60.40
2019-04-10T03:48:23.218Z,61.50
2019-04-10T03:49:23.248Z,61.40
2019-04-10T03:50:23.655Z,61.40
2019-04-10T03:51:23.305Z,61.70
2019-04-10T03:52:23.334Z,60.30
2019-04-10T03:53:24.534Z,61.50
2019-04-10T03:54:23.392Z,60.80
2019-04-10T03:55:23.424Z,61.50
2019-04-10T03:56:23.522Z,61.50
2019-04-10T03:57:24.608Z,61.50
2019-04-10T03:58:23.509Z,59.70
2019-04-10T03:59:24.364Z,58.30
2019-04-10T04:00:23.573Z,59.10
2019-04-10T04:01:23.598Z,57.10
2019-04-10T04:02:23.992Z,57.10
2019-04-10T04:03:24.593Z,66.30
2019-04-10T04:04:23.822Z,68.30
2019-04-10T04:05:23.715Z,71.70
2019-04-10T04:06:23.774Z,68.50
2019-04-10T04:07:25.993Z,65.20
2019-04-10T04:08:23.803Z,64.30
2019-04-10T04:09:23.840Z,64.80
2019-04-10T04:10:24.595Z,61.40
2019-04-10T04:11:23.932Z,63.20
2019-04-10T04:12:23.922Z,66.40
2019-04-10T04:13:23.949Z,68.00
2019-04-10T04:14:24.233Z,67.10
2019-04-10T04:15:24.068Z,66.50
2019-04-10T04:16:24.713Z,66.10
2019-04-10T04:17:24.236Z,66.40
2019-04-10T04:18:24.857Z,64.10
2019-04-10T04:19:24.151Z,63.50
2019-04-10T04:20:24.154Z,67.00
2019-04-10T04:21:24.185Z,66.50
2019-04-10T04:22:25.012Z,65.70
2019-04-10T04:23:24.242Z,64.40
2019-04-10T04:24:25.497Z,73.10
2019-04-10T04:25:24.301Z,77.70
2019-04-10T04:26:25.232Z,74.00
2019-04-10T04:27:25.017Z,75.00
2019-04-10T04:28:24.389Z,68.00
2019-04-10T04:29:24.730Z,65.60
2019-04-10T04:30:24.719Z,60.00
2019-04-10T04:31:24.957Z,60.20
2019-04-10T04:32:24.510Z,62.50
2019-04-10T04:33:24.535Z,64.90
2019-04-10T04:34:25.034Z,60.90
2019-04-10T04:35:25.612Z,56.70
2019-04-10T04:36:24.680Z,59.10
2019-04-10T04:37:24.661Z,59.60
2019-04-10T04:38:25.636Z,58.30
2019-04-10T04:39:26.979Z,59.00
2019-04-10T04:40:25.812Z,58.20
2019-04-10T04:41:25.334Z,58.10
2019-04-10T04:42:24.799Z,58.80
2019-04-10T04:43:25.113Z,60.00
2019-04-10T04:44:24.857Z,60.10
2019-04-10T04:45:25.685Z,59.40
2019-04-10T04:46:26.015Z,57.00
2019-04-10T04:47:24.951Z,58.00
2019-04-10T04:48:24.976Z,56.60
2019-04-10T04:49:25.004Z,56.80
2019-04-10T04:50:25.034Z,55.80
2019-04-10T04:51:25.985Z,53.30
2019-04-10T04:52:25.850Z,55.60
2019-04-10T04:53:26.052Z,53.80
2019-04-10T04:54:25.508Z,53.30
2019-04-10T04:55:26.070Z,55.30
2019-04-10T04:56:26.134Z,57.50
2019-04-10T04:57:25.239Z,58.70
2019-04-10T04:58:26.154Z,55.70
2019-04-10T04:59:26.157Z,57.20
2019-04-10T05:00:25.776Z,56.90
2019-04-10T05:01:25.357Z,53.70
2019-04-10T05:02:26.192Z,57.60
2019-04-10T05:03:25.730Z,54.90
2019-04-10T05:04:25.443Z,54.40
2019-04-10T05:05:25.472Z,51.40
2019-04-10T05:06:26.467Z,51.20
2019-04-10T05:07:25.532Z,49.70
2019-04-10T05:08:26.056Z,49.80
2019-04-10T05:09:33.095Z,47.50
2019-04-10T05:10:25.617Z,48.60
2019-04-10T05:11:26.590Z,42.10
2019-04-10T05:12:25.677Z,42.40
2019-04-10T05:13:26.400Z,39.30
2019-04-10T05:14:25.735Z,40.50
2019-04-10T05:15:26.902Z,40.40
2019-04-10T05:16:25.794Z,40.00
2019-04-10T05:17:25.823Z,39.20
2019-04-10T05:18:25.853Z,44.20
2019-04-10T05:19:25.882Z,43.90
2019-04-10T05:20:38.791Z,38.80
2019-04-10T05:21:25.943Z,38.90
2019-04-10T05:22:26.481Z,42.40
2019-04-10T05:23:26.583Z,39.90
2019-04-10T05:24:26.031Z,42.20
2019-04-10T05:25:26.056Z,38.20
2019-04-10T05:26:26.086Z,35.90
2019-04-10T05:27:26.650Z,33.20
2019-04-10T05:28:26.396Z,34.50
2019-04-10T05:29:29.107Z,34.30
2019-04-10T05:30:27.197Z,32.70
2019-04-10T05:31:26.234Z,31.90
2019-04-10T05:32:26.261Z,31.80
2019-04-10T05:33:26.781Z,33.70
2019-04-10T05:34:27.296Z,31.60
2019-04-10T05:35:26.348Z,33.00
2019-04-10T05:36:26.379Z,31.70
2019-04-10T05:37:27.476Z,30.40
2019-04-10T05:38:27.064Z,30.20
2019-04-10T05:39:27.855Z,30.70
2019-04-10T05:40:26.495Z,31.50
2019-04-10T05:41:26.523Z,34.50
2019-04-10T05:42:26.866Z,32.80
2019-04-10T05:43:26.589Z,31.80
2019-04-10T05:44:27.652Z,31.00
2019-04-10T05:45:27.661Z,30.20
2019-04-10T05:46:26.670Z,30.00
2019-04-10T05:47:26.699Z,27.30
2019-04-10T05:48:27.834Z,26.80
2019-04-10T05:49:26.908Z,27.60
2019-04-10T05:50:27.767Z,26.80
2019-04-10T05:51:26.818Z,26.60
2019-04-10T05:52:26.847Z,27.80
2019-04-10T05:53:26.875Z,25.00
2019-04-10T05:54:27.033Z,26.40
2019-04-10T05:55:26.935Z,27.00
2019-04-10T05:56:27.952Z,27.00
2019-04-10T05:57:26.992Z,27.60
2019-04-10T05:58:27.023Z,28.50
2019-04-10T05:59:28.080Z,28.90
2019-04-10T06:00:27.101Z,28.70
2019-04-10T06:01:35.349Z,25.80
2019-04-10T06:02:27.196Z,25.20
2019-04-10T06:03:28.178Z,24.10
2019-04-10T06:04:27.500Z,24.60
2019-04-10T06:08:28.182Z,24.10
2019-04-10T06:09:28.946Z,28.90
2019-04-10T06:10:28.242Z,25.70
2019-04-10T06:11:28.857Z,25.30
2019-04-10T06:12:28.551Z,27.40
2019-04-10T06:13:28.328Z,25.90
2019-04-10T06:14:28.380Z,26.70
2019-04-10T06:15:28.766Z,26.30
2019-04-10T06:16:28.438Z,26.50
2019-04-10T06:17:28.447Z,25.90
2019-04-10T06:18:29.235Z,26.00
2019-04-10T06:19:28.871Z,26.50
2019-04-10T06:20:29.239Z,24.80
2019-04-10T06:21:29.858Z,25.50
2019-04-10T06:22:28.597Z,27.30
2019-04-10T06:23:29.600Z,24.50
2019-04-10T06:24:28.650Z,29.20
2019-04-10T06:25:29.457Z,29.50
2019-04-10T06:26:29.903Z,24.80
2019-04-10T06:27:28.737Z,25.20
2019-04-10T06:28:30.587Z,26.50
2019-04-10T06:29:28.917Z,27.80
2019-04-10T06:30:30.064Z,24.70
2019-04-10T06:31:28.858Z,27.40
2019-04-10T06:32:29.573Z,27.70
2019-04-10T06:33:28.914Z,26.00
2019-04-10T06:34:30.063Z,23.20
2019-04-10T06:35:30.133Z,26.90
2019-04-10T06:36:29.212Z,24.90
2019-04-10T06:37:29.032Z,24.30
2019-04-10T06:38:29.061Z,25.80
2019-04-10T06:39:29.093Z,27.30
2019-04-10T06:40:30.524Z,26.40
2019-04-10T06:41:29.149Z,24.70
2019-04-10T06:42:29.568Z,26.70
2019-04-10T06:43:29.209Z,27.20
2019-04-10T06:44:30.121Z,28.50
2019-04-10T06:45:29.269Z,26.80
2019-04-10T06:46:29.296Z,27.20
2019-04-10T06:47:29.326Z,28.00
2019-04-10T06:48:29.382Z,24.40
2019-04-10T06:49:29.390Z,22.90
2019-04-10T06:50:30.086Z,22.90
2019-04-10T06:51:29.454Z,25.00
2019-04-10T06:52:30.397Z,23.90
2019-04-10T06:53:29.503Z,24.10
2019-04-10T06:54:29.533Z,23.20
2019-04-10T06:55:30.156Z,26.70
2019-04-10T06:56:29.590Z,28.50
2019-04-10T06:57:30.510Z,28.60
2019-04-10T06:58:29.799Z,27.80
2019-04-10T06:59:30.473Z,28.90
2019-04-10T07:00:30.653Z,26.70
2019-04-10T07:01:40.451Z,23.90
2019-04-10T07:02:31.602Z,24.20
2019-04-10T07:03:45.784Z,24.60
2019-04-10T07:04:42.269Z,24.20
2019-04-10T07:05:40.022Z,26.40
2019-04-10T07:06:44.643Z,25.30
2019-04-10T07:07:42.336Z,27.80
2019-04-10T07:08:30.012Z,27.00
2019-04-10T07:09:30.030Z,25.10
2019-04-10T07:10:43.753Z,24.90
2019-04-10T07:11:32.243Z,26.30
2019-04-10T07:12:33.545Z,24.60
2019-04-10T07:13:30.233Z,25.80
2019-04-10T07:14:30.119Z,25.30
2019-04-10T07:15:30.149Z,24.00
2019-04-10T07:16:32.605Z,23.40
2019-04-10T07:17:30.229Z,23.20
2019-04-10T07:18:30.456Z,24.30
2019-04-10T07:19:30.414Z,25.90
2019-04-10T07:20:30.295Z,25.60
2019-04-10T07:21:32.911Z,27.50
2019-04-10T07:22:31.139Z,28.10
2019-04-10T07:23:31.964Z,27.40
2019-04-10T07:24:34.486Z,27.40
2019-04-10T07:25:30.443Z,29.00
2019-04-10T07:26:37.983Z,29.00
2019-04-10T07:27:32.772Z,30.60
2019-04-10T07:28:30.533Z,31.50
2019-04-10T07:29:31.130Z,29.20
2019-04-10T07:30:31.770Z,29.20
2019-04-10T07:31:34.987Z,28.40
2019-04-10T07:32:30.928Z,30.50
2019-04-10T07:33:30.928Z,30.50
2019-04-10T07:34:30.710Z,30.00
2019-04-10T07:35:33.725Z,32.60
2019-04-10T07:36:30.800Z,31.80
2019-04-10T07:37:31.915Z,32.30
2019-04-10T07:38:30.966Z,31.90
2019-04-10T07:39:33.475Z,32.40
2019-04-10T07:40:34.947Z,33.40
2019-04-10T07:41:31.515Z,33.40
2019-04-10T07:42:36.937Z,31.90
2019-04-10T07:43:32.067Z,32.10
2019-04-10T07:44:31.006Z,34.00
2019-04-10T07:45:31.037Z,33.30
2019-04-10T07:46:31.301Z,32.40
2019-04-10T07:47:31.425Z,34.00
2019-04-10T07:48:31.458Z,32.90
2019-04-10T07:49:31.812Z,33.00
2019-04-10T07:50:31.264Z,33.10
2019-04-10T07:51:31.907Z,31.00
2019-04-10T07:52:31.250Z,31.00
2019-04-10T07:53:31.276Z,29.60
2019-04-10T07:54:31.309Z,29.30
2019-04-10T07:55:31.336Z,27.00
2019-04-10T07:56:31.365Z,27.60
2019-04-10T07:57:31.396Z,25.40
2019-04-10T07:58:31.426Z,26.30
2019-04-10T07:59:31.455Z,25.70
2019-04-10T08:00:32.039Z,26.10
2019-04-10T08:01:31.516Z,25.70
2019-04-10T08:02:31.795Z,27.20
2019-04-10T08:03:31.575Z,27.50
2019-04-10T08:04:31.606Z,27.40
2019-04-10T08:05:31.635Z,27.80
2019-04-10T08:06:31.665Z,28.60
2019-04-10T08:07:35.754Z,27.20
2019-04-10T08:08:31.726Z,26.20
2019-04-10T08:09:31.756Z,26.80
2019-04-10T08:10:32.744Z,28.20
2019-04-10T08:11:31.816Z,26.80
2019-04-10T08:12:40.563Z,27.30
2019-04-10T08:13:32.994Z,28.20
2019-04-10T08:14:31.907Z,26.70
2019-04-10T08:15:31.935Z,25.90
2019-04-10T08:16:32.893Z,25.80
2019-04-10T08:17:32.478Z,24.20
2019-04-10T08:18:32.025Z,23.70
2019-04-10T08:19:32.796Z,22.30
2019-04-10T08:20:32.688Z,23.20
2019-04-10T08:21:32.151Z,22.70
2019-04-10T08:22:32.825Z,22.10
2019-04-10T08:23:32.176Z,23.00
2019-04-10T08:24:32.315Z,20.60
2019-04-10T08:25:33.230Z,21.00
2019-04-10T08:26:32.541Z,21.70
2019-04-10T08:27:32.294Z,21.90
2019-04-10T08:28:32.767Z,20.50
2019-04-10T08:29:32.430Z,19.90
2019-04-10T08:30:32.386Z,20.30
2019-04-10T08:31:32.896Z,20.30
2019-04-10T08:32:40.536Z,20.40
2019-04-10T08:33:32.476Z,19.80
2019-04-10T08:34:33.571Z,20.20
2019-04-10T08:35:33.387Z,19.10
2019-04-10T08:36:32.592Z,17.90
2019-04-10T08:37:32.645Z,18.20
2019-04-10T08:38:32.644Z,18.20
2019-04-10T08:39:40.237Z,16.70
2019-04-10T08:40:32.687Z,18.10
2019-04-10T08:41:33.047Z,16.00
2019-04-10T08:42:33.195Z,15.40
2019-04-10T08:43:34.017Z,16.40
2019-04-10T08:44:33.003Z,15.80
2019-04-10T08:45:40.633Z,15.70
2019-04-10T08:46:33.641Z,16.50
2019-04-10T08:47:33.443Z,16.70
2019-04-10T08:48:33.104Z,18.50
2019-04-10T08:49:32.959Z,16.90
2019-04-10T08:50:32.989Z,16.50
2019-04-10T08:51:33.216Z,15.20
2019-04-10T08:52:33.048Z,15.10
2019-04-10T08:53:34.069Z,12.60
2019-04-10T08:54:34.280Z,13.30
2019-04-10T08:55:33.433Z,14.20
2019-04-10T08:56:33.368Z,12.60
2019-04-10T08:57:34.165Z,12.40
2019-04-10T08:58:33.232Z,13.40
2019-04-10T08:59:33.994Z,15.30
2019-04-10T09:00:34.328Z,16.00
2019-04-10T09:01:33.522Z,13.60
2019-04-10T09:02:33.876Z,14.20
2019-04-10T09:03:33.382Z,14.50
2019-04-10T09:04:33.667Z,14.10
2019-04-10T09:05:33.443Z,16.10
2019-04-10T09:06:33.648Z,15.90
2019-04-10T09:07:33.505Z,15.50
2019-04-10T09:08:33.546Z,16.50
2019-04-10T09:09:33.943Z,15.80
2019-04-10T09:10:34.440Z,16.80
2019-04-10T09:11:34.029Z,17.10
2019-04-10T09:12:33.750Z,18.60
2019-04-10T09:13:34.680Z,21.80
2019-04-10T09:14:34.944Z,25.30
2019-04-10T09:15:34.187Z,24.70
2019-04-10T09:16:34.288Z,25.30
2019-04-10T09:17:33.811Z,27.80
2019-04-10T09:18:33.841Z,26.00
2019-04-10T09:19:34.071Z,28.50
2019-04-10T09:20:34.983Z,32.00
2019-04-10T09:21:34.645Z,37.90
2019-04-10T09:22:55.190Z,40.10
2019-04-10T09:23:42.564Z,43.90
2019-04-10T09:24:34.174Z,38.10
2019-04-10T09:25:35.274Z,39.80
2019-04-10T09:26:34.087Z,39.50
2019-04-10T09:27:34.116Z,46.10
2019-04-10T09:28:34.805Z,45.80
2019-04-10T09:29:34.182Z,50.60
2019-04-10T09:30:35.278Z,52.00
2019-04-10T09:31:34.239Z,45.30
2019-04-10T09:32:34.718Z,45.60
2019-04-10T09:33:34.853Z,48.40
2019-04-10T09:34:34.329Z,44.60
2019-04-10T09:35:34.362Z,47.20
2019-04-10T09:36:35.429Z,49.70
2019-04-10T09:37:34.545Z,49.80
2019-04-10T09:38:34.861Z,49.50
2019-04-10T09:39:34.484Z,48.60
2019-04-10T09:40:34.522Z,49.40
2019-04-10T09:41:34.545Z,51.70
2019-04-10T09:42:35.430Z,50.90
2019-04-10T09:43:35.692Z,51.50
2019-04-10T09:44:35.833Z,48.70
2019-04-10T09:45:35.017Z,49.20
2019-04-10T09:46:35.304Z,48.40
2019-04-10T09:47:34.878Z,46.90
2019-04-10T09:48:35.771Z,47.10
2019-04-10T09:49:40.344Z,49.30
2019-04-10T09:50:35.405Z,46.00
2019-04-10T09:51:34.854Z,45.30
2019-04-10T09:52:35.656Z,50.00
2019-04-10T09:53:35.212Z,45.30
2019-04-10T09:54:34.969Z,42.30
2019-04-10T09:55:34.968Z,43.90
2019-04-10T09:56:34.999Z,44.70
2019-04-10T09:57:35.028Z,44.80
2019-04-10T09:58:35.092Z,45.20
2019-04-10T09:59:36.954Z,49.70
2019-04-10T10:00:36.040Z,49.00
2019-04-10T10:01:35.837Z,50.70
2019-04-10T10:02:35.782Z,52.60
2019-04-10T10:03:35.225Z,51.80
2019-04-10T10:04:35.238Z,53.60
2019-04-10T10:05:35.269Z,54.20
2019-04-10T10:06:36.978Z,55.20
2019-04-10T10:07:35.331Z,56.70
2019-04-10T10:08:35.930Z,57.30
2019-04-10T10:09:35.650Z,56.00
2019-04-10T10:10:36.816Z,56.80
2019-04-10T10:11:36.376Z,55.40
2019-04-10T10:12:36.434Z,56.50
2019-04-10T10:13:35.509Z,53.90
2019-04-10T10:14:35.839Z,49.70
2019-04-10T10:15:35.654Z,48.70
2019-04-10T10:16:35.872Z,49.40
2019-04-10T10:17:35.651Z,49.70
2019-04-10T10:18:35.659Z,50.70
2019-04-10T10:19:36.317Z,50.00
2019-04-10T10:20:35.719Z,50.60
2019-04-10T10:21:36.602Z,50.90
2019-04-10T10:22:36.933Z,54.30
2019-04-10T10:23:36.087Z,52.20
2019-04-10T10:24:35.838Z,51.30
2019-04-10T10:25:35.871Z,50.00
2019-04-10T10:26:36.481Z,48.50
2019-04-10T10:27:35.930Z,49.60
2019-04-10T10:28:35.972Z,50.90
2019-04-10T10:29:35.989Z,49.70
2019-04-10T10:30:36.021Z,52.60
2019-04-10T10:31:36.140Z,52.30
2019-04-10T10:32:37.184Z,51.90
2019-04-10T10:33:36.112Z,50.80
2019-04-10T10:34:36.723Z,50.30
2019-04-10T10:35:36.171Z,53.50
2019-04-10T10:36:41.441Z,53.10
2019-04-10T10:37:36.648Z,54.00
2019-04-10T10:38:36.989Z,55.20
2019-04-10T10:39:37.087Z,54.80
2019-04-10T10:40:36.372Z,53.40
2019-04-10T10:41:36.353Z,53.20
2019-04-10T10:42:38.460Z,49.80
2019-04-10T10:43:36.415Z,51.50
2019-04-10T10:44:36.444Z,49.90
2019-04-10T10:45:36.726Z,48.70
2019-04-10T10:46:37.657Z,50.10
2019-04-10T10:47:36.534Z,51.60
2019-04-10T10:48:36.566Z,57.50
2019-04-10T10:49:36.830Z,58.60
2019-04-10T10:50:37.272Z,57.40
2019-04-10T10:51:37.095Z,57.50
2019-04-10T10:52:36.685Z,62.30
2019-04-10T10:53:36.718Z,62.90
2019-04-10T10:55:37.728Z,63.30
2019-04-10T10:56:36.807Z,62.10
2019-04-10T10:57:37.476Z,63.60
2019-04-10T10:58:37.587Z,57.20
2019-04-10T10:59:37.725Z,54.70
2019-04-10T11:00:36.953Z,55.90
2019-04-10T11:01:37.962Z,54.30
2019-04-10T11:02:37.958Z,54.00
2019-04-10T11:03:37.022Z,52.90
2019-04-10T11:04:37.859Z,54.20
2019-04-10T11:05:37.232Z,57.90
2019-04-10T11:06:49.525Z,60.60
2019-04-10T11:07:38.671Z,59.50
2019-04-10T11:08:37.375Z,57.00
2019-04-10T11:09:37.202Z,56.20
2019-04-10T11:10:37.232Z,60.90
2019-04-10T11:11:37.262Z,59.70
2019-04-10T11:12:38.397Z,57.90
2019-04-10T11:13:37.324Z,57.50
2019-04-10T11:14:37.354Z,59.60
2019-04-10T11:15:42.106Z,61.70
2019-04-10T11:16:37.414Z,70.70
2019-04-10T11:17:38.429Z,69.90
2019-04-10T11:18:38.027Z,73.40
2019-04-10T11:19:37.533Z,72.70
2019-04-10T11:20:37.536Z,71.40
2019-04-10T11:21:38.970Z,71.30
2019-04-10T11:22:37.750Z,71.30
2019-04-10T11:23:37.668Z,72.90
2019-04-10T11:24:38.329Z,72.90
2019-04-10T11:25:37.860Z,73.60
2019-04-10T11:26:37.730Z,70.10
2019-04-10T11:27:39.202Z,74.20
2019-04-10T11:28:39.157Z,73.30
2019-04-10T11:29:38.938Z,73.80
2019-04-10T11:30:37.838Z,75.30
2019-04-10T11:31:38.242Z,75.80
2019-04-10T11:32:38.287Z,67.30
2019-04-10T11:33:39.716Z,70.20
2019-04-10T11:34:38.209Z,69.50
2019-04-10T11:35:39.522Z,66.80
2019-04-10T11:36:38.021Z,67.80
2019-04-10T11:37:44.438Z,68.40
2019-04-10T11:38:39.705Z,66.30
2019-04-10T11:39:42.894Z,65.10
2019-04-10T11:40:38.925Z,68.00
2019-04-10T11:41:39.414Z,68.90
2019-04-10T11:42:39.976Z,71.90
2019-04-10T11:43:38.235Z,68.90
2019-04-10T11:44:39.603Z,66.90
2019-04-10T11:46:41.449Z,78.90
2019-04-10T11:47:38.852Z,78.20
2019-04-10T11:48:39.232Z,78.00
2019-04-10T11:49:42.799Z,75.80
2019-04-10T11:50:38.657Z,76.00
2019-04-10T11:51:38.880Z,74.50
2019-04-10T11:53:43.964Z,77.40
2019-04-10T11:54:41.369Z,79.40
2019-04-10T11:55:43.797Z,80.90
2019-04-10T11:56:38.632Z,81.90
2019-04-10T11:57:38.665Z,83.70
2019-04-10T11:58:48.948Z,82.90
2019-04-10T11:59:40.905Z,83.90
2019-04-10T12:00:49.260Z,84.40
2019-04-10T12:01:39.382Z,85.80
2019-04-10T12:02:39.653Z,84.00
2019-04-10T12:04:48.167Z,86.50
2019-04-10T12:05:41.243Z,83.20
2019-04-10T12:06:40.303Z,83.80
2019-04-10T12:11:39.277Z,88.80
2019-04-10T12:12:39.121Z,90.70
2019-04-10T12:13:39.154Z,93.70
2019-04-10T12:14:39.633Z,93.20
2019-04-10T12:15:39.236Z,93.20
2019-04-10T12:16:39.248Z,93.40
2019-04-10T12:17:40.203Z,94.20
2019-04-10T12:18:40.483Z,94.40
2019-04-10T12:19:40.463Z,92.60
2019-04-10T12:20:39.374Z,87.70
2019-04-10T12:21:40.004Z,94.60
2019-04-10T12:22:40.598Z,93.90
2019-04-10T12:23:39.457Z,95.00
2019-04-10T12:25:39.517Z,89.00
2019-04-10T12:26:40.151Z,85.50
2019-04-10T12:27:39.592Z,93.50
2019-04-10T12:28:40.306Z,92.60
2019-04-10T12:29:40.509Z,89.80
2019-04-10T12:30:39.670Z,86.90
2019-04-10T12:31:39.811Z,85.20
2019-04-10T12:32:40.966Z,86.70
2019-04-10T12:33:39.790Z,90.50
2019-04-10T12:34:40.288Z,92.30
2019-04-10T12:35:40.354Z,91.10
2019-04-10T12:36:39.853Z,92.70
2019-04-10T12:37:39.885Z,90.70
2019-04-10T12:38:39.915Z,90.10
2019-04-10T12:39:39.948Z,92.30
2019-04-10T12:40:40.524Z,93.00
2019-04-10T12:41:40.008Z,86.80
2019-04-10T12:42:40.654Z,83.60
2019-04-10T12:43:41.106Z,82.30
2019-04-10T12:44:40.931Z,81.90
2019-04-10T12:45:40.335Z,85.80
2019-04-10T12:46:41.424Z,92.60
2019-04-10T12:47:40.211Z,92.50
2019-04-10T12:48:41.059Z,87.40
2019-04-10T12:49:41.284Z,85.30
2019-04-10T12:50:41.279Z,81.30
2019-04-10T12:51:40.313Z,82.80
2019-04-10T12:52:40.904Z,82.40
2019-04-10T12:53:40.394Z,84.10
2019-04-10T12:54:40.567Z,88.40
2019-04-10T12:55:40.434Z,86.20
2019-04-10T12:56:40.464Z,87.00
2019-04-10T12:57:41.348Z,82.40
2019-04-10T12:58:40.528Z,84.70
2019-04-10T12:59:41.649Z,83.40
2019-04-10T13:00:41.522Z,80.10
2019-04-10T13:01:40.860Z,77.80
2019-04-10T13:02:40.815Z,79.60
2019-04-10T13:03:41.137Z,78.00
2019-04-10T13:04:40.795Z,81.20
2019-04-10T13:05:41.127Z,84.90
2019-04-10T13:06:40.771Z,81.10
2019-04-10T13:07:40.856Z,84.40
2019-04-10T13:08:57.034Z,82.50
2019-04-10T13:09:40.863Z,83.00
2019-04-10T13:10:41.223Z,88.10